Time;durP1;ratioP1;P1;durP2;ratioP2;P2;SDS_P1;SDS_P2;PMS_P1;PMS_P2;Temp;Humidity;BMP_temperature;BMP_pressure;BME280_temperature;BME280_humidity;BME280_pressure;Samples;Min_cycle;Max_cycle;Signal;HPM_P1;HPM_P2
2021/01/17 08:05:51;;;;;;;39.27;20.27;;;-1.70;99.90;;;;;;2859957;22;20053;-89
2021/01/17 08:08:35;;;;;;;41.70;22.07;;;-1.60;99.90;;;;;;5042708;28;20053;-93
2021/01/17 08:11:02;;;;;;;39.23;20.87;;;-1.60;99.90;;;;;;5047669;28;20284;-94
2021/01/17 08:13:32;;;;;;;43.20;20.43;;;-1.50;99.90;;;;;;5036606;28;20041;-93
2021/01/17 08:16:23;;;;;;;39.33;19.63;;;-1.40;99.90;;;;;;5024131;28;20041;-91
2021/01/17 08:19:18;;;;;;;39.60;21.37;;;-1.40;99.90;;;;;;5023322;28;20026;-93
2021/01/17 08:21:51;;;;;;;39.70;20.10;;;-1.20;99.90;;;;;;5024022;28;20010;-93
2021/01/17 08:24:39;;;;;;;40.90;19.80;;;-1.10;99.90;;;;;;5032905;28;20037;-92
2021/01/17 08:27:39;;;;;;;36.03;19.13;;;-1.10;99.90;;;;;;5027568;28;20032;-92
2021/01/17 08:46:59;;;;;;;39.47;19.80;;;-0.50;99.90;;;;;;4289471;26;20034;-92
2021/01/17 08:49:36;;;;;;;;;;;-0.40;99.90;;;;;;5013381;28;20033;-95
2021/01/17 08:52:02;;;;;;;37.03;19.73;;;-0.40;99.90;;;;;;5016739;28;19929;-92
2021/01/17 08:54:51;;;;;;;36.70;19.03;;;-0.30;99.90;;;;;;5025112;28;20371;-93
2021/01/17 08:57:43;;;;;;;35.60;19.50;;;-0.40;99.90;;;;;;5031270;28;20084;-93
2021/01/17 09:00:16;;;;;;;42.87;19.93;;;-0.30;99.90;;;;;;5029138;28;20033;-95
2021/01/17 09:02:44;;;;;;;37.33;18.67;;;-0.40;99.90;;;;;;5033633;28;20059;-91
2021/01/17 09:05:21;;;;;;;37.87;19.90;;;-0.40;99.90;;;;;;5028843;28;20030;-92
2021/01/17 09:07:47;;;;;;;39.57;20.90;;;-0.50;99.90;;;;;;5041291;28;20033;-92
2021/01/17 09:10:18;;;;;;;35.50;18.53;;;-0.50;99.90;;;;;;5032012;28;20052;-91
2021/01/17 09:12:44;;;;;;;35.23;19.43;;;-0.40;99.90;;;;;;5031986;28;20046;-94
2021/01/17 09:15:19;;;;;;;38.67;20.27;;;-0.40;99.90;;;;;;5037523;28;20021;-91
2021/01/17 09:18:01;;;;;;;43.70;21.13;;;-0.40;99.90;;;;;;5013897;28;20042;-94
2021/01/17 09:20:51;;;;;;;35.72;19.67;;;-0.40;99.90;;;;;;5034674;28;20014;-92
2021/01/17 09:23:20;;;;;;;39.20;20.30;;;-0.20;99.90;;;;;;5033027;28;20028;-93
2021/01/17 09:25:58;;;;;;;37.97;19.07;;;-0.10;99.90;;;;;;5034507;28;20106;-93
2021/01/17 09:28:32;;;;;;;34.93;18.47;;;0.10;99.90;;;;;;5020788;28;20050;-91
2021/01/17 09:31:08;;;;;;;31.57;17.93;;;0.00;99.90;;;;;;5030289;28;20033;-93
2021/01/17 09:33:43;;;;;;;36.00;18.00;;;-0.10;99.90;;;;;;5026931;28;20041;-93
2021/01/17 09:36:11;;;;;;;33.97;18.20;;;0.10;99.90;;;;;;5035862;28;20094;-90
2021/01/17 09:38:44;;;;;;;36.13;18.63;;;0.10;99.90;;;;;;5028970;28;20026;-90
2021/01/17 09:41:10;;;;;;;35.27;19.43;;;0.00;99.90;;;;;;5009885;28;20041;-92
2021/01/17 09:43:40;;;;;;;37.17;18.23;;;0.10;99.90;;;;;;5005611;28;20052;-90
2021/01/17 09:46:05;;;;;;;37.33;19.73;;;0.10;99.90;;;;;;5005421;28;20033;-92
2021/01/17 09:48:31;;;;;;;35.50;17.83;;;0.20;99.90;;;;;;5006746;28;20022;-92
2021/01/17 09:50:57;;;;;;;34.57;18.77;;;0.40;99.90;;;;;;5009077;28;20475;-92
2021/01/17 09:53:22;;;;;;;34.43;17.53;;;0.40;99.90;;;;;;5002165;28;20039;-91
2021/01/17 09:55:48;;;;;;;33.33;17.07;;;0.60;99.90;;;;;;4996764;28;20095;-89
2021/01/17 09:58:15;;;;;;;32.43;17.00;;;0.70;99.90;;;;;;5010264;28;20488;-92
2021/01/17 10:00:44;;;;;;;33.03;18.33;;;0.80;99.90;;;;;;5011194;28;20025;-91
2021/01/17 10:03:17;;;;;;;33.87;18.97;;;0.90;99.90;;;;;;5009292;28;20021;-91
2021/01/17 10:05:44;;;;;;;31.63;16.87;;;1.20;99.90;;;;;;5011660;28;20045;-90
2021/01/17 10:08:12;;;;;;;31.53;16.73;;;1.00;99.90;;;;;;5012634;28;20025;-90
2021/01/17 10:10:40;;;;;;;31.10;17.13;;;0.90;99.90;;;;;;5011134;28;20026;-89
2021/01/17 10:13:09;;;;;;;30.17;17.67;;;1.00;99.90;;;;;;5015331;28;20025;-91
2021/01/17 10:15:36;;;;;;;35.70;18.10;;;1.10;99.90;;;;;;5025471;28;20021;-92
2021/01/17 10:18:02;;;;;;;32.87;17.17;;;1.20;99.90;;;;;;5021342;28;20532;-89
2021/01/17 10:20:30;;;;;;;32.73;16.57;;;1.00;99.90;;;;;;5005559;28;20062;-90
2021/01/17 10:23:10;;;;;;;33.83;18.07;;;1.00;99.90;;;;;;5013066;28;20840;-91
2021/01/17 10:25:36;;;;;;;33.93;17.47;;;0.90;99.90;;;;;;5015186;28;20491;-93
2021/01/17 10:28:07;;;;;;;31.80;17.27;;;0.80;99.90;;;;;;5018731;28;20035;-92
2021/01/17 10:30:35;;;;;;;36.27;19.27;;;0.80;99.90;;;;;;5003775;28;20040;-91
2021/01/17 10:33:09;;;;;;;33.30;17.47;;;0.70;99.90;;;;;;5005954;28;20026;-92
2021/01/17 10:35:47;;;;;;;35.60;18.30;;;0.60;99.90;;;;;;5013814;28;20022;-92
2021/01/17 10:38:13;;;;;;;32.57;16.93;;;0.60;99.90;;;;;;5010555;28;20034;-91
2021/01/17 10:40:44;;;;;;;29.50;15.80;;;0.50;99.90;;;;;;5023025;28;20026;-94
2021/01/17 10:43:36;;;;;;;29.30;16.43;;;0.50;99.90;;;;;;5027067;28;20017;-91
2021/01/17 10:46:15;;;;;;;28.20;13.70;;;0.50;99.90;;;;;;5023307;28;20018;-92
2021/01/17 10:49:34;;;;;;;;;;;;;;;;;;;;;
2021/01/17 10:52:25;;;;;;;34.07;17.67;;;0.70;99.90;;;;;;5030955;28;20052;-93
2021/01/17 10:54:57;;;;;;;36.33;18.53;;;0.70;99.90;;;;;;5035449;28;20049;-91
2021/01/17 10:57:37;;;;;;;;;;;0.80;99.90;;;;;;5034498;28;20018;-91
2021/01/17 11:00:16;;;;;;;29.93;15.53;;;0.90;99.90;;;;;;5032839;28;19908;-91
2021/01/17 11:30:28;;;;;;;30.73;14.93;;;0.90;99.90;;;;;;4947346;29;20078;-86
2021/01/17 11:36:35;;;;;;;27.97;15.40;;;0.90;99.90;;;;;;4931459;28;20042;-86
2021/01/17 11:39:02;;;;;;;36.97;17.43;;;1.00;99.90;;;;;;4955218;28;20034;-86
2021/01/17 11:41:34;;;;;;;31.70;16.63;;;1.10;99.90;;;;;;4952882;28;20034;-86
2021/01/17 11:44:18;;;;;;;31.38;15.85;;;1.00;99.90;;;;;;4979920;28;20532;-87
2021/01/17 11:46:45;;;;;;;32.77;16.67;;;1.10;99.90;;;;;;4981460;28;20030;-86
2021/01/17 11:49:11;;;;;;;31.50;17.73;;;1.20;99.90;;;;;;4987672;28;20022;-86
2021/01/17 11:51:56;;;;;;;30.57;15.83;;;1.20;99.90;;;;;;4986525;28;20034;-85
2021/01/17 11:54:43;;;;;;;30.10;15.97;;;1.10;99.90;;;;;;4981678;28;20392;-86
2021/01/17 11:57:46;;;;;;;32.47;16.07;;;1.20;99.90;;;;;;4981122;28;20050;-88
2021/01/17 20:49:03;;;;;;;12.20;6.70;;;1.10;99.90;;;;;;679096;23;21781;-93
2021/01/17 20:51:33;;;;;;;10.67;6.80;;;1.20;99.90;;;;;;4993113;28;20090;-92
2021/01/17 21:14:39;;;;;;;10.93;5.47;;;1.20;99.90;;;;;;4957962;28;20566;-92
